sensor_id;sensor_type;location;lat;lon;timestamp;P1;durP1;ratioP1;P2;durP2;ratioP2
47279;SDS011;34064;44.942;0.008;2022-07-06T00:01:00;2.88;;;2.60;;
47279;SDS011;34064;44.942;0.008;2022-07-06T00:03:26;2.92;;;2.35;;
47279;SDS011;34064;44.942;0.008;2022-07-06T00:05:53;4.47;;;2.33;;
47279;SDS011;34064;44.942;0.008;2022-07-06T00:08:19;2.75;;;2.42;;
47279;SDS011;34064;44.942;0.008;2022-07-06T00:10:45;4.80;;;2.35;;
47279;SDS011;34064;44.942;0.008;2022-07-06T00:13:12;5.72;;;2.65;;
47279;SDS011;34064;44.942;0.008;2022-07-06T00:15:38;3.70;;;2.53;;
47279;SDS011;34064;44.942;0.008;2022-07-06T00:18:04;4.55;;;2.00;;
47279;SDS011;34064;44.942;0.008;2022-07-06T00:20:31;3.45;;;2.33;;
47279;SDS011;34064;44.942;0.008;2022-07-06T00:22:57;2.90;;;2.13;;
47279;SDS011;34064;44.942;0.008;2022-07-06T00:25:23;7.97;;;2.70;;
47279;SDS011;34064;44.942;0.008;2022-07-06T00:27:50;2.30;;;2.10;;
47279;SDS011;34064;44.942;0.008;2022-07-06T00:30:16;2.50;;;2.30;;
47279;SDS011;34064;44.942;0.008;2022-07-06T00:32:43;2.97;;;2.15;;
47279;SDS011;34064;44.942;0.008;2022-07-06T00:35:09;4.45;;;2.08;;
47279;SDS011;34064;44.942;0.008;2022-07-06T00:37:35;2.47;;;1.75;;
47279;SDS011;34064;44.942;0.008;2022-07-06T00:40:02;2.17;;;1.98;;
47279;SDS011;34064;44.942;0.008;2022-07-06T00:42:28;4.18;;;2.15;;
47279;SDS011;34064;44.942;0.008;2022-07-06T00:44:55;3.85;;;2.20;;
47279;SDS011;34064;44.942;0.008;2022-07-06T00:47:21;3.47;;;2.50;;
47279;SDS011;34064;44.942;0.008;2022-07-06T00:49:48;2.67;;;2.10;;
47279;SDS011;34064;44.942;0.008;2022-07-06T00:52:32;4.80;;;2.60;;
47279;SDS011;34064;44.942;0.008;2022-07-06T00:54:59;4.93;;;1.92;;
47279;SDS011;34064;44.942;0.008;2022-07-06T00:57:27;6.60;;;2.13;;
47279;SDS011;34064;44.942;0.008;2022-07-06T00:59:53;3.03;;;2.20;;
47279;SDS011;34064;44.942;0.008;2022-07-06T01:02:21;3.92;;;2.50;;
47279;SDS011;34064;44.942;0.008;2022-07-06T01:04:47;3.47;;;2.30;;
47279;SDS011;34064;44.942;0.008;2022-07-06T01:07:14;4.05;;;2.95;;
47279;SDS011;34064;44.942;0.008;2022-07-06T01:09:41;3.88;;;2.38;;
47279;SDS011;34064;44.942;0.008;2022-07-06T01:12:07;3.13;;;2.10;;
47279;SDS011;34064;44.942;0.008;2022-07-06T01:14:33;3.90;;;2.47;;
47279;SDS011;34064;44.942;0.008;2022-07-06T01:17:01;3.38;;;2.60;;
47279;SDS011;34064;44.942;0.008;2022-07-06T01:19:28;2.50;;;2.10;;
47279;SDS011;34064;44.942;0.008;2022-07-06T01:21:55;5.07;;;2.15;;
47279;SDS011;34064;44.942;0.008;2022-07-06T01:24:21;2.33;;;1.70;;
47279;SDS011;34064;44.942;0.008;2022-07-06T01:26:47;3.75;;;2.40;;
47279;SDS011;34064;44.942;0.008;2022-07-06T01:29:14;4.45;;;2.53;;
47279;SDS011;34064;44.942;0.008;2022-07-06T01:31:47;5.00;;;2.25;;
47279;SDS011;34064;44.942;0.008;2022-07-06T01:34:18;4.95;;;2.45;;
47279;SDS011;34064;44.942;0.008;2022-07-06T01:36:45;2.47;;;2.20;;
47279;SDS011;34064;44.942;0.008;2022-07-06T01:39:11;2.58;;;2.22;;
47279;SDS011;34064;44.942;0.008;2022-07-06T01:41:38;2.60;;;2.40;;
47279;SDS011;34064;44.942;0.008;2022-07-06T01:44:04;4.03;;;2.15;;
47279;SDS011;34064;44.942;0.008;2022-07-06T01:46:31;3.80;;;2.05;;
47279;SDS011;34064;44.942;0.008;2022-07-06T01:48:58;4.50;;;2.40;;
47279;SDS011;34064;44.942;0.008;2022-07-06T01:51:24;3.47;;;2.38;;
47279;SDS011;34064;44.942;0.008;2022-07-06T01:53:51;5.72;;;2.47;;
47279;SDS011;34064;44.942;0.008;2022-07-06T01:56:18;4.43;;;2.15;;
47279;SDS011;34064;44.942;0.008;2022-07-06T01:58:45;4.47;;;2.50;;
47279;SDS011;34064;44.942;0.008;2022-07-06T02:01:13;4.53;;;2.40;;
47279;SDS011;34064;44.942;0.008;2022-07-06T02:03:41;4.82;;;2.78;;
47279;SDS011;34064;44.942;0.008;2022-07-06T02:06:08;4.45;;;2.45;;
47279;SDS011;34064;44.942;0.008;2022-07-06T02:08:36;2.95;;;2.10;;
47279;SDS011;34064;44.942;0.008;2022-07-06T02:11:03;2.75;;;2.47;;
47279;SDS011;34064;44.942;0.008;2022-07-06T02:13:34;2.90;;;2.60;;
47279;SDS011;34064;44.942;0.008;2022-07-06T02:16:03;5.53;;;2.70;;
47279;SDS011;34064;44.942;0.008;2022-07-06T02:18:32;7.53;;;2.67;;
47279;SDS011;34064;44.942;0.008;2022-07-06T02:21:04;4.40;;;2.60;;
47279;SDS011;34064;44.942;0.008;2022-07-06T02:23:33;4.68;;;3.38;;
47279;SDS011;34064;44.942;0.008;2022-07-06T02:26:01;3.08;;;2.60;;
47279;SDS011;34064;44.942;0.008;2022-07-06T02:28:29;4.25;;;2.30;;
47279;SDS011;34064;44.942;0.008;2022-07-06T02:30:55;5.55;;;2.47;;
47279;SDS011;34064;44.942;0.008;2022-07-06T02:33:22;2.67;;;2.20;;
47279;SDS011;34064;44.942;0.008;2022-07-06T02:35:50;8.45;;;2.70;;
47279;SDS011;34064;44.942;0.008;2022-07-06T02:38:17;2.60;;;2.38;;
47279;SDS011;34064;44.942;0.008;2022-07-06T02:40:43;3.75;;;2.50;;
47279;SDS011;34064;44.942;0.008;2022-07-06T02:43:10;2.97;;;2.40;;
47279;SDS011;34064;44.942;0.008;2022-07-06T02:45:36;4.43;;;2.42;;
47279;SDS011;34064;44.942;0.008;2022-07-06T02:48:02;4.45;;;2.47;;
47279;SDS011;34064;44.942;0.008;2022-07-06T02:50:29;3.95;;;2.35;;
47279;SDS011;34064;44.942;0.008;2022-07-06T02:52:55;3.97;;;2.28;;
47279;SDS011;34064;44.942;0.008;2022-07-06T02:55:23;2.60;;;2.08;;
47279;SDS011;34064;44.942;0.008;2022-07-06T02:57:50;3.72;;;2.17;;
47279;SDS011;34064;44.942;0.008;2022-07-06T03:00:16;4.53;;;2.30;;
47279;SDS011;34064;44.942;0.008;2022-07-06T03:02:43;5.10;;;2.30;;
47279;SDS011;34064;44.942;0.008;2022-07-06T03:05:09;2.72;;;2.30;;
47279;SDS011;34064;44.942;0.008;2022-07-06T03:07:35;2.97;;;2.25;;
47279;SDS011;34064;44.942;0.008;2022-07-06T03:10:02;5.97;;;2.30;;
47279;SDS011;34064;44.942;0.008;2022-07-06T03:12:29;3.30;;;1.98;;
47279;SDS011;34064;44.942;0.008;2022-07-06T03:14:55;5.07;;;1.70;;
47279;SDS011;34064;44.942;0.008;2022-07-06T03:17:23;2.70;;;2.30;;
47279;SDS011;34064;44.942;0.008;2022-07-06T03:19:52;3.05;;;2.85;;
47279;SDS011;34064;44.942;0.008;2022-07-06T03:22:20;3.92;;;2.20;;
47279;SDS011;34064;44.942;0.008;2022-07-06T03:24:47;4.97;;;2.03;;
47279;SDS011;34064;44.942;0.008;2022-07-06T03:27:14;3.80;;;2.28;;
47279;SDS011;34064;44.942;0.008;2022-07-06T03:29:41;2.40;;;1.80;;
47279;SDS011;34064;44.942;0.008;2022-07-06T03:32:07;3.88;;;2.10;;
47279;SDS011;34064;44.942;0.008;2022-07-06T03:34:33;5.57;;;2.60;;
47279;SDS011;34064;44.942;0.008;2022-07-06T03:37:00;3.92;;;2.80;;
47279;SDS011;34064;44.942;0.008;2022-07-06T03:39:26;4.32;;;2.75;;
47279;SDS011;34064;44.942;0.008;2022-07-06T03:41:53;5.68;;;2.75;;
47279;SDS011;34064;44.942;0.008;2022-07-06T03:44:19;3.50;;;2.10;;
47279;SDS011;34064;44.942;0.008;2022-07-06T03:46:45;1.77;;;1.63;;
47279;SDS011;34064;44.942;0.008;2022-07-06T03:49:12;3.22;;;2.90;;
47279;SDS011;34064;44.942;0.008;2022-07-06T03:51:38;3.25;;;2.53;;
47279;SDS011;34064;44.942;0.008;2022-07-06T03:54:05;5.75;;;2.67;;
47279;SDS011;34064;44.942;0.008;2022-07-06T03:56:31;2.95;;;2.25;;
47279;SDS011;34064;44.942;0.008;2022-07-06T03:58:59;4.45;;;2.40;;
47279;SDS011;34064;44.942;0.008;2022-07-06T04:01:27;3.78;;;2.53;;
47279;SDS011;34064;44.942;0.008;2022-07-06T04:03:54;2.72;;;2.33;;
47279;SDS011;34064;44.942;0.008;2022-07-06T04:06:21;4.97;;;2.08;;
47279;SDS011;34064;44.942;0.008;2022-07-06T04:08:48;7.90;;;3.08;;
47279;SDS011;34064;44.942;0.008;2022-07-06T04:11:15;4.38;;;3.03;;
47279;SDS011;34064;44.942;0.008;2022-07-06T04:13:41;3.28;;;2.25;;
47279;SDS011;34064;44.942;0.008;2022-07-06T04:16:08;4.82;;;2.03;;
47279;SDS011;34064;44.942;0.008;2022-07-06T04:18:34;2.35;;;2.00;;
47279;SDS011;34064;44.942;0.008;2022-07-06T04:21:00;4.20;;;2.15;;
47279;SDS011;34064;44.942;0.008;2022-07-06T04:23:27;5.18;;;2.58;;
47279;SDS011;34064;44.942;0.008;2022-07-06T04:25:54;6.55;;;2.47;;
47279;SDS011;34064;44.942;0.008;2022-07-06T04:28:20;4.13;;;2.40;;
47279;SDS011;34064;44.942;0.008;2022-07-06T04:30:46;2.95;;;2.25;;
47279;SDS011;34064;44.942;0.008;2022-07-06T04:33:13;3.08;;;2.08;;
47279;SDS011;34064;44.942;0.008;2022-07-06T04:35:39;3.70;;;2.58;;
47279;SDS011;34064;44.942;0.008;2022-07-06T04:38:06;4.78;;;2.35;;
47279;SDS011;34064;44.942;0.008;2022-07-06T04:40:32;4.72;;;3.45;;
47279;SDS011;34064;44.942;0.008;2022-07-06T04:42:59;3.65;;;2.33;;
47279;SDS011;34064;44.942;0.008;2022-07-06T04:45:25;3.35;;;2.35;;
47279;SDS011;34064;44.942;0.008;2022-07-06T04:47:52;3.30;;;2.35;;
47279;SDS011;34064;44.942;0.008;2022-07-06T04:50:18;5.32;;;2.63;;
47279;SDS011;34064;44.942;0.008;2022-07-06T04:52:44;2.63;;;2.42;;
47279;SDS011;34064;44.942;0.008;2022-07-06T04:55:11;5.72;;;2.83;;
47279;SDS011;34064;44.942;0.008;2022-07-06T04:57:39;6.30;;;2.47;;
47279;SDS011;34064;44.942;0.008;2022-07-06T05:00:06;4.20;;;2.65;;
47279;SDS011;34064;44.942;0.008;2022-07-06T05:02:33;5.68;;;2.47;;
47279;SDS011;34064;44.942;0.008;2022-07-06T05:04:59;3.40;;;2.20;;
47279;SDS011;34064;44.942;0.008;2022-07-06T05:07:26;4.60;;;2.25;;
47279;SDS011;34064;44.942;0.008;2022-07-06T05:09:54;3.85;;;2.50;;
47279;SDS011;34064;44.942;0.008;2022-07-06T05:12:20;2.88;;;2.58;;
47279;SDS011;34064;44.942;0.008;2022-07-06T05:14:47;2.67;;;2.10;;
47279;SDS011;34064;44.942;0.008;2022-07-06T05:17:13;3.97;;;2.40;;
47279;SDS011;34064;44.942;0.008;2022-07-06T05:19:39;3.40;;;2.28;;
47279;SDS011;34064;44.942;0.008;2022-07-06T05:22:06;2.70;;;2.47;;
47279;SDS011;34064;44.942;0.008;2022-07-06T05:24:32;9.55;;;2.47;;
47279;SDS011;34064;44.942;0.008;2022-07-06T05:26:58;3.15;;;2.60;;
47279;SDS011;34064;44.942;0.008;2022-07-06T05:29:25;2.90;;;2.60;;
47279;SDS011;34064;44.942;0.008;2022-07-06T05:31:51;3.67;;;2.88;;
47279;SDS011;34064;44.942;0.008;2022-07-06T05:34:17;3.25;;;2.58;;
47279;SDS011;34064;44.942;0.008;2022-07-06T05:36:44;2.78;;;2.50;;
47279;SDS011;34064;44.942;0.008;2022-07-06T05:39:10;3.22;;;2.08;;
47279;SDS011;34064;44.942;0.008;2022-07-06T05:41:37;2.55;;;2.35;;
47279;SDS011;34064;44.942;0.008;2022-07-06T05:44:03;3.15;;;2.10;;
47279;SDS011;34064;44.942;0.008;2022-07-06T05:46:29;2.92;;;2.63;;
47279;SDS011;34064;44.942;0.008;2022-07-06T05:48:56;2.50;;;2.30;;
47279;SDS011;34064;44.942;0.008;2022-07-06T05:51:40;7.18;;;2.45;;
47279;SDS011;34064;44.942;0.008;2022-07-06T05:54:08;5.88;;;2.55;;
47279;SDS011;34064;44.942;0.008;2022-07-06T05:56:37;4.95;;;2.60;;
47279;SDS011;34064;44.942;0.008;2022-07-06T05:59:06;2.58;;;2.20;;
47279;SDS011;34064;44.942;0.008;2022-07-06T06:01:32;3.25;;;2.15;;
47279;SDS011;34064;44.942;0.008;2022-07-06T06:04:00;5.30;;;2.63;;
47279;SDS011;34064;44.942;0.008;2022-07-06T06:06:29;4.43;;;2.20;;
47279;SDS011;34064;44.942;0.008;2022-07-06T06:08:58;3.97;;;2.55;;
47279;SDS011;34064;44.942;0.008;2022-07-06T06:11:27;4.00;;;2.63;;
47279;SDS011;34064;44.942;0.008;2022-07-06T06:13:53;4.95;;;2.10;;
47279;SDS011;34064;44.942;0.008;2022-07-06T06:16:20;3.95;;;2.20;;
47279;SDS011;34064;44.942;0.008;2022-07-06T06:18:47;3.13;;;2.13;;
47279;SDS011;34064;44.942;0.008;2022-07-06T06:21:16;3.30;;;2.60;;
47279;SDS011;34064;44.942;0.008;2022-07-06T06:23:44;2.72;;;2.10;;
47279;SDS011;34064;44.942;0.008;2022-07-06T06:26:10;13.77;;;3.47;;
47279;SDS011;34064;44.942;0.008;2022-07-06T06:28:36;2.38;;;2.15;;
47279;SDS011;34064;44.942;0.008;2022-07-06T06:31:04;5.70;;;2.30;;
47279;SDS011;34064;44.942;0.008;2022-07-06T06:33:33;3.55;;;2.40;;
47279;SDS011;34064;44.942;0.008;2022-07-06T06:36:03;4.35;;;2.40;;
47279;SDS011;34064;44.942;0.008;2022-07-06T06:38:32;5.13;;;2.67;;
47279;SDS011;34064;44.942;0.008;2022-07-06T06:41:05;2.67;;;2.28;;
47279;SDS011;34064;44.942;0.008;2022-07-06T06:43:38;6.25;;;1.98;;
47279;SDS011;34064;44.942;0.008;2022-07-06T06:46:20;4.60;;;2.20;;
47279;SDS011;34064;44.942;0.008;2022-07-06T06:48:57;6.78;;;2.15;;
47279;SDS011;34064;44.942;0.008;2022-07-06T06:51:51;4.15;;;2.35;;
47279;SDS011;34064;44.942;0.008;2022-07-06T06:54:37;3.72;;;2.80;;
47279;SDS011;34064;44.942;0.008;2022-07-06T06:57:18;3.90;;;2.13;;
47279;SDS011;34064;44.942;0.008;2022-07-06T06:59:51;5.88;;;3.00;;
47279;SDS011;34064;44.942;0.008;2022-07-06T07:02:31;3.75;;;2.65;;
47279;SDS011;34064;44.942;0.008;2022-07-06T07:05:10;2.67;;;2.47;;
47279;SDS011;34064;44.942;0.008;2022-07-06T07:07:37;5.82;;;2.85;;
47279;SDS011;34064;44.942;0.008;2022-07-06T07:10:04;4.93;;;2.33;;
47279;SDS011;34064;44.942;0.008;2022-07-06T07:12:41;4.13;;;2.58;;
47279;SDS011;34064;44.942;0.008;2022-07-06T07:15:09;5.05;;;2.70;;
47279;SDS011;34064;44.942;0.008;2022-07-06T07:17:37;4.75;;;2.33;;
47279;SDS011;34064;44.942;0.008;2022-07-06T07:20:07;3.65;;;2.60;;
47279;SDS011;34064;44.942;0.008;2022-07-06T07:22:36;3.25;;;2.10;;
47279;SDS011;34064;44.942;0.008;2022-07-06T07:25:02;4.20;;;2.40;;
47279;SDS011;34064;44.942;0.008;2022-07-06T07:27:29;3.08;;;2.70;;
47279;SDS011;34064;44.942;0.008;2022-07-06T07:29:56;6.65;;;3.20;;
47279;SDS011;34064;44.942;0.008;2022-07-06T07:32:22;6.93;;;2.67;;
47279;SDS011;34064;44.942;0.008;2022-07-06T07:34:49;5.50;;;2.65;;
47279;SDS011;34064;44.942;0.008;2022-07-06T07:37:15;3.08;;;2.13;;
47279;SDS011;34064;44.942;0.008;2022-07-06T07:39:42;4.47;;;2.20;;
47279;SDS011;34064;44.942;0.008;2022-07-06T07:42:08;5.82;;;2.15;;
47279;SDS011;34064;44.942;0.008;2022-07-06T07:44:35;2.78;;;2.13;;
47279;SDS011;34064;44.942;0.008;2022-07-06T07:47:01;2.47;;;2.28;;
47279;SDS011;34064;44.942;0.008;2022-07-06T07:49:27;5.13;;;3.03;;
47279;SDS011;34064;44.942;0.008;2022-07-06T07:51:55;4.90;;;2.03;;
47279;SDS011;34064;44.942;0.008;2022-07-06T07:54:23;4.63;;;2.28;;
47279;SDS011;34064;44.942;0.008;2022-07-06T07:56:50;4.68;;;2.25;;
47279;SDS011;34064;44.942;0.008;2022-07-06T07:59:19;2.90;;;2.33;;
47279;SDS011;34064;44.942;0.008;2022-07-06T08:01:45;5.05;;;2.17;;
47279;SDS011;34064;44.942;0.008;2022-07-06T08:04:12;5.57;;;2.30;;
47279;SDS011;34064;44.942;0.008;2022-07-06T08:06:38;4.00;;;2.30;;
47279;SDS011;34064;44.942;0.008;2022-07-06T08:09:05;4.10;;;2.10;;
47279;SDS011;34064;44.942;0.008;2022-07-06T08:11:34;2.58;;;1.95;;
47279;SDS011;34064;44.942;0.008;2022-07-06T08:14:02;4.75;;;1.88;;
47279;SDS011;34064;44.942;0.008;2022-07-06T08:16:29;7.15;;;1.83;;
47279;SDS011;34064;44.942;0.008;2022-07-06T08:18:57;3.45;;;2.00;;
47279;SDS011;34064;44.942;0.008;2022-07-06T08:21:25;5.03;;;1.83;;
47279;SDS011;34064;44.942;0.008;2022-07-06T08:23:52;3.70;;;1.85;;
47279;SDS011;34064;44.942;0.008;2022-07-06T08:26:19;3.97;;;1.98;;
47279;SDS011;34064;44.942;0.008;2022-07-06T08:28:46;2.72;;;1.77;;
47279;SDS011;34064;44.942;0.008;2022-07-06T08:31:13;5.75;;;2.42;;
47279;SDS011;34064;44.942;0.008;2022-07-06T08:33:39;4.75;;;2.17;;
47279;SDS011;34064;44.942;0.008;2022-07-06T08:36:05;5.22;;;2.10;;
47279;SDS011;34064;44.942;0.008;2022-07-06T08:38:32;6.35;;;1.90;;
47279;SDS011;34064;44.942;0.008;2022-07-06T08:40:58;3.95;;;2.60;;
47279;SDS011;34064;44.942;0.008;2022-07-06T08:43:25;4.70;;;2.00;;
47279;SDS011;34064;44.942;0.008;2022-07-06T08:45:52;7.85;;;2.15;;
47279;SDS011;34064;44.942;0.008;2022-07-06T08:48:19;3.97;;;1.58;;
47279;SDS011;34064;44.942;0.008;2022-07-06T08:50:48;4.88;;;2.38;;
47279;SDS011;34064;44.942;0.008;2022-07-06T08:53:15;2.97;;;1.95;;
47279;SDS011;34064;44.942;0.008;2022-07-06T08:55:43;2.75;;;2.30;;
47279;SDS011;34064;44.942;0.008;2022-07-06T08:58:09;2.45;;;1.90;;
47279;SDS011;34064;44.942;0.008;2022-07-06T09:00:36;3.97;;;1.75;;
47279;SDS011;34064;44.942;0.008;2022-07-06T09:03:04;3.17;;;2.20;;
47279;SDS011;34064;44.942;0.008;2022-07-06T09:05:31;4.82;;;2.13;;
47279;SDS011;34064;44.942;0.008;2022-07-06T09:08:00;5.63;;;2.42;;
47279;SDS011;34064;44.942;0.008;2022-07-06T09:10:27;5.10;;;2.53;;
47279;SDS011;34064;44.942;0.008;2022-07-06T09:12:53;4.15;;;2.05;;
47279;SDS011;34064;44.942;0.008;2022-07-06T09:15:29;4.10;;;1.80;;
47279;SDS011;34064;44.942;0.008;2022-07-06T09:17:56;4.07;;;1.65;;
47279;SDS011;34064;44.942;0.008;2022-07-06T09:20:25;3.67;;;1.95;;
47279;SDS011;34064;44.942;0.008;2022-07-06T09:22:57;4.28;;;2.40;;
47279;SDS011;34064;44.942;0.008;2022-07-06T09:25:25;4.47;;;2.28;;
47279;SDS011;34064;44.942;0.008;2022-07-06T09:27:52;3.42;;;2.42;;
47279;SDS011;34064;44.942;0.008;2022-07-06T09:30:20;3.72;;;2.00;;
47279;SDS011;34064;44.942;0.008;2022-07-06T09:32:55;2.50;;;1.98;;
47279;SDS011;34064;44.942;0.008;2022-07-06T09:35:30;6.50;;;2.17;;
47279;SDS011;34064;44.942;0.008;2022-07-06T09:40:30;1.80;;;1.60;;
47279;SDS011;34064;44.942;0.008;2022-07-06T09:43:07;2.70;;;1.70;;
47279;SDS011;34064;44.942;0.008;2022-07-06T09:45:34;3.72;;;1.80;;
47279;SDS011;34064;44.942;0.008;2022-07-06T09:48:20;3.22;;;2.22;;
47279;SDS011;34064;44.942;0.008;2022-07-06T09:50:55;3.80;;;1.83;;
47279;SDS011;34064;44.942;0.008;2022-07-06T09:53:27;3.92;;;1.83;;
47279;SDS011;34064;44.942;0.008;2022-07-06T09:55:54;3.80;;;1.70;;
47279;SDS011;34064;44.942;0.008;2022-07-06T09:58:23;4.10;;;2.13;;
47279;SDS011;34064;44.942;0.008;2022-07-06T10:00:50;3.55;;;1.92;;
47279;SDS011;34064;44.942;0.008;2022-07-06T10:03:17;2.97;;;1.40;;
47279;SDS011;34064;44.942;0.008;2022-07-06T10:05:45;3.42;;;1.85;;
47279;SDS011;34064;44.942;0.008;2022-07-06T10:08:14;1.95;;;1.40;;
47279;SDS011;34064;44.942;0.008;2022-07-06T10:10:41;5.07;;;1.50;;
47279;SDS011;34064;44.942;0.008;2022-07-06T10:13:09;2.50;;;1.70;;
47279;SDS011;34064;44.942;0.008;2022-07-06T10:15:37;2.20;;;1.55;;
47279;SDS011;34064;44.942;0.008;2022-07-06T10:18:06;2.33;;;1.25;;
47279;SDS011;34064;44.942;0.008;2022-07-06T10:20:35;3.65;;;1.92;;
47279;SDS011;34064;44.942;0.008;2022-07-06T10:23:04;3.28;;;1.77;;
47279;SDS011;34064;44.942;0.008;2022-07-06T10:25:32;2.45;;;1.40;;
47279;SDS011;34064;44.942;0.008;2022-07-06T10:27:59;3.00;;;1.73;;
47279;SDS011;34064;44.942;0.008;2022-07-06T10:30:26;3.15;;;1.40;;
47279;SDS011;34064;44.942;0.008;2022-07-06T10:32:54;1.65;;;1.50;;
47279;SDS011;34064;44.942;0.008;2022-07-06T10:35:23;2.70;;;1.63;;
47279;SDS011;34064;44.942;0.008;2022-07-06T10:38:06;2.45;;;1.95;;
47279;SDS011;34064;44.942;0.008;2022-07-06T10:40:39;5.05;;;2.03;;
47279;SDS011;34064;44.942;0.008;2022-07-06T10:43:30;3.38;;;1.45;;
47279;SDS011;34064;44.942;0.008;2022-07-06T10:45:58;3.42;;;1.63;;
47279;SDS011;34064;44.942;0.008;2022-07-06T10:48:34;5.18;;;1.65;;
47279;SDS011;34064;44.942;0.008;2022-07-06T10:51:01;4.13;;;1.77;;
47279;SDS011;34064;44.942;0.008;2022-07-06T10:53:33;2.78;;;1.70;;
47279;SDS011;34064;44.942;0.008;2022-07-06T10:56:05;3.25;;;1.80;;
47279;SDS011;34064;44.942;0.008;2022-07-06T11:01:16;5.32;;;1.63;;
47279;SDS011;34064;44.942;0.008;2022-07-06T11:03:45;3.47;;;1.33;;
47279;SDS011;34064;44.942;0.008;2022-07-06T11:06:31;1.83;;;1.20;;
47279;SDS011;34064;44.942;0.008;2022-07-06T11:14:05;7.53;;;1.88;;
47279;SDS011;34064;44.942;0.008;2022-07-06T11:16:37;2.97;;;1.48;;
47279;SDS011;34064;44.942;0.008;2022-07-06T11:19:11;1.77;;;1.42;;
47279;SDS011;34064;44.942;0.008;2022-07-06T11:21:46;4.05;;;1.98;;
47279;SDS011;34064;44.942;0.008;2022-07-06T11:24:20;8.30;;;1.98;;
47279;SDS011;34064;44.942;0.008;2022-07-06T11:26:49;2.80;;;1.38;;
47279;SDS011;34064;44.942;0.008;2022-07-06T11:29:17;3.90;;;1.20;;
47279;SDS011;34064;44.942;0.008;2022-07-06T11:31:49;1.90;;;1.38;;
47279;SDS011;34064;44.942;0.008;2022-07-06T11:36:47;2.33;;;1.42;;
47279;SDS011;34064;44.942;0.008;2022-07-06T11:39:14;3.65;;;1.73;;
47279;SDS011;34064;44.942;0.008;2022-07-06T11:41:41;3.42;;;1.77;;
47279;SDS011;34064;44.942;0.008;2022-07-06T11:44:07;3.20;;;1.45;;
47279;SDS011;34064;44.942;0.008;2022-07-06T11:46:34;2.05;;;1.60;;
47279;SDS011;34064;44.942;0.008;2022-07-06T11:49:02;4.53;;;1.77;;
47279;SDS011;34064;44.942;0.008;2022-07-06T11:51:34;2.43;;;1.37;;
47279;SDS011;34064;44.942;0.008;2022-07-06T11:54:09;3.03;;;1.17;;
47279;SDS011;34064;44.942;0.008;2022-07-06T11:56:37;6.82;;;1.88;;
47279;SDS011;34064;44.942;0.008;2022-07-06T11:59:14;2.53;;;1.50;;
47279;SDS011;34064;44.942;0.008;2022-07-06T12:01:41;3.63;;;2.13;;
47279;SDS011;34064;44.942;0.008;2022-07-06T12:04:09;2.22;;;1.40;;
47279;SDS011;34064;44.942;0.008;2022-07-06T12:06:36;2.28;;;1.75;;
47279;SDS011;34064;44.942;0.008;2022-07-06T12:09:02;5.50;;;1.45;;
47279;SDS011;34064;44.942;0.008;2022-07-06T12:11:32;3.38;;;1.65;;
47279;SDS011;34064;44.942;0.008;2022-07-06T12:14:01;3.45;;;1.38;;
47279;SDS011;34064;44.942;0.008;2022-07-06T12:16:38;3.50;;;1.80;;
47279;SDS011;34064;44.942;0.008;2022-07-06T12:19:05;1.90;;;1.40;;
47279;SDS011;34064;44.942;0.008;2022-07-06T12:21:33;4.35;;;1.50;;
47279;SDS011;34064;44.942;0.008;2022-07-06T12:24:00;3.40;;;1.60;;
47279;SDS011;34064;44.942;0.008;2022-07-06T12:26:38;2.83;;;2.40;;
47279;SDS011;34064;44.942;0.008;2022-07-06T12:29:06;1.63;;;1.17;;
47279;SDS011;34064;44.942;0.008;2022-07-06T12:31:38;3.22;;;1.55;;
47279;SDS011;34064;44.942;0.008;2022-07-06T12:34:13;4.22;;;1.52;;
47279;SDS011;34064;44.942;0.008;2022-07-06T12:36:47;5.68;;;1.50;;
47279;SDS011;34064;44.942;0.008;2022-07-06T12:39:23;3.45;;;1.20;;
47279;SDS011;34064;44.942;0.008;2022-07-06T12:41:51;3.70;;;1.38;;
47279;SDS011;34064;44.942;0.008;2022-07-06T12:44:18;1.70;;;1.23;;
47279;SDS011;34064;44.942;0.008;2022-07-06T12:46:47;2.03;;;1.40;;
47279;SDS011;34064;44.942;0.008;2022-07-06T12:51:52;2.15;;;1.48;;
47279;SDS011;34064;44.942;0.008;2022-07-06T12:54:20;2.67;;;1.52;;
47279;SDS011;34064;44.942;0.008;2022-07-06T13:04:58;1.90;;;1.40;;
47279;SDS011;34064;44.942;0.008;2022-07-06T13:07:35;4.03;;;1.40;;
47279;SDS011;34064;44.942;0.008;2022-07-06T13:10:03;3.65;;;1.50;;
47279;SDS011;34064;44.942;0.008;2022-07-06T13:12:36;2.80;;;1.40;;
47279;SDS011;34064;44.942;0.008;2022-07-06T13:15:04;4.13;;;1.65;;
47279;SDS011;34064;44.942;0.008;2022-07-06T13:17:32;3.05;;;1.73;;
47279;SDS011;34064;44.942;0.008;2022-07-06T13:19:59;2.05;;;1.70;;
47279;SDS011;34064;44.942;0.008;2022-07-06T13:22:26;3.45;;;1.42;;
47279;SDS011;34064;44.942;0.008;2022-07-06T13:24:52;3.13;;;1.52;;
47279;SDS011;34064;44.942;0.008;2022-07-06T13:27:19;2.30;;;1.50;;
47279;SDS011;34064;44.942;0.008;2022-07-06T13:29:45;2.53;;;1.58;;
47279;SDS011;34064;44.942;0.008;2022-07-06T13:32:11;3.80;;;1.55;;
47279;SDS011;34064;44.942;0.008;2022-07-06T13:34:38;4.10;;;2.05;;
47279;SDS011;34064;44.942;0.008;2022-07-06T13:37:04;2.13;;;1.60;;
47279;SDS011;34064;44.942;0.008;2022-07-06T13:39:31;3.72;;;1.52;;
47279;SDS011;34064;44.942;0.008;2022-07-06T13:41:58;2.70;;;1.50;;
47279;SDS011;34064;44.942;0.008;2022-07-06T13:44:25;3.55;;;1.20;;
47279;SDS011;34064;44.942;0.008;2022-07-06T13:46:51;3.10;;;2.08;;
47279;SDS011;34064;44.942;0.008;2022-07-06T13:49:18;4.88;;;2.10;;
47279;SDS011;34064;44.942;0.008;2022-07-06T13:51:44;2.20;;;1.85;;
47279;SDS011;34064;44.942;0.008;2022-07-06T13:54:11;2.22;;;1.83;;
47279;SDS011;34064;44.942;0.008;2022-07-06T13:56:38;2.53;;;1.70;;
47279;SDS011;34064;44.942;0.008;2022-07-06T13:59:05;2.50;;;1.38;;
47279;SDS011;34064;44.942;0.008;2022-07-06T14:01:32;2.28;;;1.60;;
47279;SDS011;34064;44.942;0.008;2022-07-06T14:03:58;5.18;;;1.65;;
47279;SDS011;34064;44.942;0.008;2022-07-06T14:06:24;3.53;;;1.38;;
47279;SDS011;34064;44.942;0.008;2022-07-06T14:08:51;2.53;;;1.63;;
47279;SDS011;34064;44.942;0.008;2022-07-06T14:11:18;1.35;;;1.10;;
47279;SDS011;34064;44.942;0.008;2022-07-06T14:13:44;3.97;;;1.33;;
47279;SDS011;34064;44.942;0.008;2022-07-06T14:16:10;2.75;;;1.42;;
47279;SDS011;34064;44.942;0.008;2022-07-06T14:18:37;4.57;;;1.42;;
47279;SDS011;34064;44.942;0.008;2022-07-06T14:21:03;3.55;;;1.80;;
47279;SDS011;34064;44.942;0.008;2022-07-06T14:23:30;1.50;;;1.40;;
47279;SDS011;34064;44.942;0.008;2022-07-06T14:25:56;1.95;;;1.75;;
47279;SDS011;34064;44.942;0.008;2022-07-06T14:28:23;3.03;;;2.00;;
47279;SDS011;34064;44.942;0.008;2022-07-06T14:30:50;3.38;;;1.48;;
47279;SDS011;34064;44.942;0.008;2022-07-06T14:33:16;3.60;;;1.77;;
47279;SDS011;34064;44.942;0.008;2022-07-06T14:35:45;2.38;;;1.50;;
47279;SDS011;34064;44.942;0.008;2022-07-06T14:38:13;2.53;;;1.23;;
47279;SDS011;34064;44.942;0.008;2022-07-06T14:40:41;3.95;;;1.50;;
47279;SDS011;34064;44.942;0.008;2022-07-06T14:43:07;4.85;;;1.90;;
47279;SDS011;34064;44.942;0.008;2022-07-06T14:45:34;2.40;;;1.20;;
47279;SDS011;34064;44.942;0.008;2022-07-06T14:48:01;2.38;;;1.95;;
47279;SDS011;34064;44.942;0.008;2022-07-06T14:50:27;2.63;;;1.52;;
47279;SDS011;34064;44.942;0.008;2022-07-06T14:52:54;5.00;;;1.40;;
47279;SDS011;34064;44.942;0.008;2022-07-06T14:55:21;2.17;;;1.50;;
47279;SDS011;34064;44.942;0.008;2022-07-06T14:57:48;1.95;;;1.48;;
47279;SDS011;34064;44.942;0.008;2022-07-06T15:00:14;3.97;;;1.60;;
47279;SDS011;34064;44.942;0.008;2022-07-06T15:02:41;2.85;;;1.65;;
47279;SDS011;34064;44.942;0.008;2022-07-06T15:05:08;2.58;;;1.38;;
47279;SDS011;34064;44.942;0.008;2022-07-06T15:07:36;3.25;;;1.40;;
47279;SDS011;34064;44.942;0.008;2022-07-06T15:10:03;2.75;;;1.60;;
47279;SDS011;34064;44.942;0.008;2022-07-06T15:12:30;2.63;;;1.17;;
47279;SDS011;34064;44.942;0.008;2022-07-06T15:14:56;1.73;;;1.40;;
47279;SDS011;34064;44.942;0.008;2022-07-06T15:17:23;3.30;;;1.80;;